createdAt,value
2017-12-06T00:00:17.536Z,63.22
2017-12-06T00:00:49.177Z,63.11
2017-12-06T00:01:20.798Z,63.19
2017-12-06T00:01:52.426Z,63.23
2017-12-06T00:02:24.100Z,63.31
2017-12-06T00:02:55.745Z,63.52
2017-12-06T00:03:27.386Z,63.42
2017-12-06T00:03:59.055Z,63.22
2017-12-06T00:04:30.682Z,63.21
2017-12-06T00:05:02.342Z,63.43
2017-12-06T00:05:33.966Z,63.30
2017-12-06T00:06:05.905Z,63.32
2017-12-06T00:06:37.546Z,63.29
2017-12-06T00:07:09.188Z,63.52
2017-12-06T00:07:40.829Z,63.40
2017-12-06T00:08:13.701Z,63.35
2017-12-06T00:08:45.339Z,63.34
2017-12-06T00:09:16.981Z,63.40
2017-12-06T00:09:48.623Z,63.29
2017-12-06T00:10:20.294Z,63.22
2017-12-06T00:10:51.922Z,63.35
2017-12-06T00:11:23.859Z,63.17
2017-12-06T00:11:55.758Z,63.25
2017-12-06T00:12:33.174Z,63.28
2017-12-06T00:13:10.403Z,63.32
2017-12-06T00:13:47.903Z,63.26
2017-12-06T00:14:25.144Z,63.25
2017-12-06T00:15:02.359Z,63.25
2017-12-06T00:15:39.682Z,63.27
2017-12-06T00:16:11.310Z,63.38
2017-12-06T00:16:43.043Z,63.39
2017-12-06T00:17:14.684Z,63.37
2017-12-06T00:17:46.326Z,63.34
2017-12-06T00:18:18.003Z,63.26
2017-12-06T00:18:49.630Z,63.31
2017-12-06T00:19:21.258Z,63.22
2017-12-06T00:19:52.895Z,63.40
2017-12-06T00:20:24.542Z,63.37
2017-12-06T00:20:56.176Z,63.29
2017-12-06T00:21:27.818Z,63.42
2017-12-06T00:21:59.459Z,63.30
2017-12-06T00:22:31.101Z,63.34
2017-12-06T00:23:02.767Z,63.25
2017-12-06T00:23:34.414Z,63.40
2017-12-06T00:24:06.062Z,63.31
2017-12-06T00:24:37.715Z,63.28
2017-12-06T00:25:09.333Z,63.39
2017-12-06T00:25:40.999Z,63.37
2017-12-06T00:26:12.627Z,63.37
2017-12-06T00:26:45.278Z,63.28
2017-12-06T00:27:16.918Z,63.31
2017-12-06T00:27:48.753Z,63.30
2017-12-06T00:28:20.413Z,63.34
2017-12-06T00:28:52.222Z,63.53
2017-12-06T00:29:23.985Z,63.40
2017-12-06T00:29:55.627Z,63.53
2017-12-06T00:30:27.267Z,63.41
2017-12-06T00:30:58.907Z,63.27
2017-12-06T00:31:30.552Z,63.30
2017-12-06T00:32:02.195Z,63.53
2017-12-06T00:32:33.842Z,63.48
2017-12-06T00:33:05.498Z,63.48
2017-12-06T00:33:37.146Z,63.46
2017-12-06T00:34:08.823Z,63.54
2017-12-06T00:34:40.446Z,63.42
2017-12-06T00:35:12.067Z,63.41
2017-12-06T00:35:43.891Z,63.37
2017-12-06T00:36:15.562Z,63.40
2017-12-06T00:36:47.182Z,63.36
2017-12-06T00:37:18.920Z,63.51
2017-12-06T00:37:50.561Z,63.64
2017-12-06T00:38:22.203Z,63.82
2017-12-06T00:38:53.843Z,63.66
2017-12-06T00:39:25.486Z,63.75
2017-12-06T00:39:57.138Z,63.81
2017-12-06T00:40:28.999Z,63.72
2017-12-06T00:41:00.677Z,63.66
2017-12-06T00:41:32.307Z,63.69
2017-12-06T00:42:03.934Z,63.78
2017-12-06T00:42:35.563Z,63.93
2017-12-06T00:43:07.196Z,64.00
2017-12-06T00:43:38.930Z,64.01
2017-12-06T00:44:10.572Z,64.13
2017-12-06T00:44:42.213Z,64.07
2017-12-06T00:45:13.855Z,64.11
2017-12-06T00:45:45.497Z,63.94
2017-12-06T00:46:17.230Z,63.91
2017-12-06T00:46:48.846Z,64.16
2017-12-06T00:47:20.474Z,64.23
2017-12-06T00:47:52.107Z,64.20
2017-12-06T00:48:23.733Z,64.33
2017-12-06T00:48:55.358Z,64.31
2017-12-06T00:49:27.299Z,64.56
2017-12-06T00:49:59.248Z,64.34
2017-12-06T00:50:30.888Z,64.18
2017-12-06T00:51:02.533Z,64.30
2017-12-06T00:51:34.212Z,64.37
2017-12-06T00:52:05.839Z,64.35
2017-12-06T00:52:37.462Z,64.58
2017-12-06T00:53:09.096Z,64.48
2017-12-06T00:53:40.740Z,64.53
2017-12-06T00:54:12.608Z,64.97
2017-12-06T00:54:44.238Z,64.83
2017-12-06T00:55:15.974Z,64.82
2017-12-06T00:55:47.603Z,64.87
2017-12-06T00:56:19.257Z,64.82
2017-12-06T00:56:50.926Z,64.71
2017-12-06T00:57:22.554Z,65.08
2017-12-06T00:57:54.184Z,64.67
2017-12-06T00:58:25.824Z,64.97
2017-12-06T00:58:57.473Z,64.78
2017-12-06T00:59:29.106Z,64.68
2017-12-06T01:00:00.752Z,64.51
2017-12-06T01:00:32.390Z,64.96
2017-12-06T01:01:04.033Z,64.51
2017-12-06T01:01:35.723Z,64.51
2017-12-06T01:02:07.350Z,64.56
2017-12-06T01:02:38.974Z,64.54
2017-12-06T01:03:10.606Z,64.36
2017-12-06T01:03:42.243Z,63.99
2017-12-06T01:04:13.885Z,63.98
2017-12-06T01:04:45.527Z,63.92
2017-12-06T01:05:17.166Z,64.03
2017-12-06T01:05:48.811Z,64.24
2017-12-06T01:06:20.451Z,64.26
2017-12-06T01:06:52.123Z,64.14
2017-12-06T01:07:23.746Z,64.08
2017-12-06T01:07:55.406Z,64.15
2017-12-06T01:08:27.083Z,64.03
2017-12-06T01:08:58.714Z,63.93
2017-12-06T01:09:30.345Z,64.14
2017-12-06T01:10:01.966Z,64.09
2017-12-06T01:10:33.596Z,63.90
2017-12-06T01:11:05.231Z,63.94
2017-12-06T01:11:36.869Z,64.06
2017-12-06T01:12:08.512Z,63.95
2017-12-06T01:12:40.156Z,63.98
2017-12-06T01:13:11.798Z,63.91
2017-12-06T01:13:43.458Z,63.89
2017-12-06T01:14:15.086Z,63.82
2017-12-06T01:14:46.728Z,63.85
2017-12-06T01:15:18.370Z,63.76
2017-12-06T01:15:50.051Z,63.80
2017-12-06T01:16:21.681Z,64.06
2017-12-06T01:16:53.304Z,64.01
2017-12-06T01:17:25.241Z,64.11
2017-12-06T01:17:56.880Z,64.20
2017-12-06T01:18:28.524Z,64.14
2017-12-06T01:19:00.166Z,64.13
2017-12-06T01:19:31.807Z,63.91
2017-12-06T01:20:03.453Z,64.01
2017-12-06T01:20:35.102Z,64.09
2017-12-06T01:21:06.782Z,64.04
2017-12-06T01:21:38.406Z,64.15
2017-12-06T01:22:10.068Z,64.06
2017-12-06T01:22:41.686Z,64.13
2017-12-06T01:23:13.311Z,64.04
2017-12-06T01:23:44.972Z,64.09
2017-12-06T01:24:16.594Z,64.13
2017-12-06T01:24:48.230Z,64.08
2017-12-06T01:25:19.865Z,64.09
2017-12-06T01:25:51.508Z,64.13
2017-12-06T01:26:23.186Z,64.05
2017-12-06T01:26:54.814Z,64.05
2017-12-06T01:27:26.461Z,64.01
2017-12-06T01:27:58.082Z,64.03
2017-12-06T01:28:29.724Z,64.02
2017-12-06T01:29:01.364Z,64.09
2017-12-06T01:29:33.009Z,63.98
2017-12-06T01:30:04.955Z,64.14
2017-12-06T01:30:36.596Z,64.00
2017-12-06T01:31:08.222Z,63.89
2017-12-06T01:31:39.886Z,63.98
2017-12-06T01:32:11.520Z,63.98
2017-12-06T01:32:43.198Z,64.06
2017-12-06T01:33:14.823Z,64.04
2017-12-06T01:33:46.454Z,64.07
2017-12-06T01:34:18.088Z,63.95
2017-12-06T01:34:49.742Z,63.95
2017-12-06T01:35:21.373Z,63.99
2017-12-06T01:35:53.012Z,63.94
2017-12-06T01:36:24.656Z,64.00
2017-12-06T01:36:56.298Z,64.14
2017-12-06T01:37:27.939Z,64.23
2017-12-06T01:37:59.608Z,64.18
2017-12-06T01:38:31.234Z,63.95
2017-12-06T01:39:02.887Z,64.08
2017-12-06T01:39:34.514Z,63.98
2017-12-06T01:40:06.147Z,64.06
2017-12-06T01:40:38.022Z,64.02
2017-12-06T01:41:09.646Z,64.16
2017-12-06T01:41:41.382Z,64.14
2017-12-06T01:42:13.022Z,64.01
2017-12-06T01:42:44.687Z,63.93
2017-12-06T01:43:16.314Z,63.95
2017-12-06T01:43:47.950Z,63.93
2017-12-06T01:44:19.598Z,63.97
2017-12-06T01:44:51.540Z,63.98
2017-12-06T01:45:23.186Z,63.92
2017-12-06T01:45:54.824Z,63.93
2017-12-06T01:46:26.467Z,64.01
2017-12-06T01:46:58.118Z,64.00
2017-12-06T01:47:30.051Z,64.01
2017-12-06T01:48:01.699Z,63.93
2017-12-06T01:48:33.341Z,63.92
2017-12-06T01:49:04.983Z,63.99
2017-12-06T01:49:36.625Z,63.89
2017-12-06T01:50:08.306Z,64.03
2017-12-06T01:50:39.938Z,63.99
2017-12-06T01:51:11.582Z,64.06
2017-12-06T01:51:43.203Z,64.04
2017-12-06T01:52:15.062Z,64.07
2017-12-06T01:52:46.691Z,64.10
2017-12-06T01:53:18.426Z,63.95
2017-12-06T01:53:50.064Z,64.00
2017-12-06T01:54:21.734Z,64.02
2017-12-06T01:54:53.358Z,63.98
2017-12-06T01:55:24.993Z,64.17
2017-12-06T01:55:56.670Z,63.98
2017-12-06T01:56:28.294Z,64.08
2017-12-06T01:57:00.386Z,63.91
2017-12-06T01:57:32.032Z,64.07
2017-12-06T01:58:03.653Z,63.92
2017-12-06T01:58:35.279Z,63.96
2017-12-06T01:59:06.906Z,63.98
2017-12-06T01:59:38.743Z,63.89
2017-12-06T02:00:10.385Z,63.96
2017-12-06T02:00:42.026Z,63.80
2017-12-06T02:01:13.694Z,63.76
2017-12-06T02:01:45.318Z,63.95
2017-12-06T02:02:16.952Z,63.96
2017-12-06T02:02:48.782Z,63.99
2017-12-06T02:03:20.373Z,64.00
2017-12-06T02:03:52.007Z,63.94
2017-12-06T02:04:23.629Z,63.86
2017-12-06T02:04:55.307Z,63.98
2017-12-06T02:05:26.954Z,63.83
2017-12-06T02:05:58.602Z,63.87
2017-12-06T02:06:30.238Z,63.97
2017-12-06T02:07:01.868Z,64.01
2017-12-06T02:07:33.494Z,63.98
2017-12-06T02:08:05.118Z,63.96
2017-12-06T02:08:36.940Z,64.02
2017-12-06T02:09:08.604Z,63.92
2017-12-06T02:09:40.247Z,64.02
2017-12-06T02:10:11.910Z,63.88
2017-12-06T02:10:43.539Z,63.94
2017-12-06T02:11:15.172Z,63.97
2017-12-06T02:11:46.813Z,63.95
2017-12-06T02:12:18.454Z,64.03
2017-12-06T02:12:50.333Z,63.87
2017-12-06T02:13:21.963Z,63.93
2017-12-06T02:13:53.591Z,64.01
2017-12-06T02:14:25.331Z,64.03
2017-12-06T02:14:56.974Z,63.88
2017-12-06T02:15:28.649Z,63.87
2017-12-06T02:16:00.275Z,63.88
2017-12-06T02:16:31.954Z,63.99
2017-12-06T02:17:03.578Z,63.91
2017-12-06T02:17:35.206Z,63.93
2017-12-06T02:18:06.832Z,63.87
2017-12-06T02:18:38.465Z,63.87
2017-12-06T02:19:10.107Z,63.83
2017-12-06T02:19:41.750Z,63.91
2017-12-06T02:20:13.389Z,63.99
2017-12-06T02:20:45.033Z,63.90
2017-12-06T02:21:16.675Z,63.97
2017-12-06T02:22:31.862Z,63.76
2017-12-06T02:23:03.486Z,63.79
2017-12-06T02:23:35.105Z,63.91
2017-12-06T02:24:06.738Z,64.04
2017-12-06T02:24:38.372Z,64.11
2017-12-06T02:25:09.999Z,63.99
2017-12-06T02:25:41.622Z,63.83
2017-12-06T02:26:13.250Z,63.88
2017-12-06T02:26:44.879Z,63.99
2017-12-06T02:27:16.551Z,63.99
2017-12-06T02:27:48.182Z,64.01
2017-12-06T02:28:19.806Z,64.03
2017-12-06T02:28:51.430Z,64.01
2017-12-06T02:29:23.078Z,63.90
2017-12-06T02:29:54.734Z,63.87
2017-12-06T02:30:26.355Z,63.84
2017-12-06T02:30:57.984Z,63.83
2017-12-06T02:31:29.615Z,64.00
2017-12-06T02:32:01.242Z,64.02
2017-12-06T02:32:32.906Z,64.01
2017-12-06T02:33:04.531Z,64.13
2017-12-06T02:33:36.287Z,64.02
2017-12-06T02:34:07.918Z,63.97
2017-12-06T02:34:39.548Z,63.96
2017-12-06T02:35:11.179Z,63.95
2017-12-06T02:35:42.875Z,63.86
2017-12-06T02:36:14.502Z,63.82
2017-12-06T02:36:46.127Z,63.84
2017-12-06T02:37:17.750Z,63.88
2017-12-06T02:37:49.381Z,63.91
2017-12-06T02:38:21.007Z,63.92
2017-12-06T02:38:52.630Z,63.98
2017-12-06T02:39:24.254Z,63.83
2017-12-06T02:39:55.883Z,63.80
2017-12-06T02:40:27.506Z,63.80
2017-12-06T02:40:59.188Z,63.87
2017-12-06T02:41:30.819Z,63.82
2017-12-06T02:42:02.455Z,63.88
2017-12-06T02:42:34.078Z,63.80
2017-12-06T02:43:05.710Z,63.80
2017-12-06T02:43:37.335Z,63.85
2017-12-06T02:44:08.958Z,63.68
2017-12-06T02:44:40.589Z,63.73
2017-12-06T02:45:12.218Z,63.82
2017-12-06T02:45:43.847Z,63.78
2017-12-06T02:46:15.526Z,63.71
2017-12-06T02:46:47.159Z,63.74
2017-12-06T02:47:18.782Z,63.71
2017-12-06T02:47:50.412Z,63.68
2017-12-06T02:48:22.038Z,63.68
2017-12-06T02:48:53.663Z,63.70
2017-12-06T02:49:25.291Z,63.79
2017-12-06T02:49:56.923Z,63.81
2017-12-06T02:50:28.558Z,63.76
2017-12-06T02:51:00.177Z,63.74
2017-12-06T02:51:31.846Z,63.78
2017-12-06T02:52:03.470Z,63.75
2017-12-06T02:52:35.098Z,63.88
2017-12-06T02:53:06.733Z,63.74
2017-12-06T02:53:38.354Z,63.70
2017-12-06T02:54:09.978Z,63.70
2017-12-06T02:54:41.607Z,63.78
2017-12-06T02:55:13.238Z,63.78
2017-12-06T02:55:44.910Z,63.66
2017-12-06T02:56:16.538Z,63.74
2017-12-06T02:56:48.166Z,63.69
2017-12-06T02:57:19.798Z,63.72
2017-12-06T02:57:51.426Z,63.69
2017-12-06T02:58:23.084Z,63.64
2017-12-06T02:58:54.711Z,63.67
2017-12-06T02:59:26.338Z,63.60
2017-12-06T02:59:57.970Z,63.52
2017-12-06T03:00:29.598Z,63.71
2017-12-06T03:01:01.269Z,63.70
2017-12-06T03:01:32.938Z,63.74
2017-12-06T03:02:04.559Z,63.74
2017-12-06T03:02:36.187Z,63.76
2017-12-06T03:03:07.814Z,63.64
2017-12-06T03:03:39.438Z,63.69
2017-12-06T03:04:11.071Z,63.74
2017-12-06T03:04:42.698Z,63.64
2017-12-06T03:05:14.334Z,63.73
2017-12-06T03:05:45.958Z,63.65
2017-12-06T03:06:17.633Z,63.71
2017-12-06T03:06:49.254Z,63.75
2017-12-06T03:07:20.879Z,63.77
2017-12-06T03:07:52.509Z,63.72
2017-12-06T03:08:24.131Z,63.74
2017-12-06T03:08:55.762Z,63.78
2017-12-06T03:09:27.387Z,63.86
2017-12-06T03:09:59.014Z,63.90
2017-12-06T03:10:30.645Z,63.80
2017-12-06T03:11:02.270Z,63.75
2017-12-06T03:11:33.938Z,63.72
2017-12-06T03:12:05.557Z,63.74
2017-12-06T03:12:37.186Z,63.74
2017-12-06T03:13:08.814Z,63.79
2017-12-06T03:13:40.474Z,63.78
2017-12-06T03:14:12.098Z,63.80
2017-12-06T03:14:43.727Z,63.89
2017-12-06T03:15:15.353Z,63.89
2017-12-06T03:15:46.991Z,63.99
2017-12-06T03:16:18.615Z,64.26
2017-12-06T03:16:50.293Z,64.27
2017-12-06T03:17:21.922Z,64.30
2017-12-06T03:17:53.546Z,64.54
2017-12-06T03:18:25.175Z,64.35
2017-12-06T03:18:56.794Z,64.44
2017-12-06T03:19:28.414Z,64.38
2017-12-06T03:20:00.042Z,64.39
2017-12-06T03:20:31.666Z,64.35
2017-12-06T03:21:03.298Z,64.53
2017-12-06T03:21:34.931Z,64.47
2017-12-06T03:22:06.602Z,64.45
2017-12-06T03:22:38.984Z,64.40
2017-12-06T03:23:10.609Z,64.45
2017-12-06T03:23:42.230Z,64.44
2017-12-06T03:24:13.850Z,64.50
2017-12-06T03:24:45.483Z,64.66
2017-12-06T03:25:17.106Z,64.60
2017-12-06T03:25:48.739Z,64.45
2017-12-06T03:26:20.362Z,64.54
2017-12-06T03:26:51.990Z,64.65
2017-12-06T03:27:23.652Z,64.56
2017-12-06T03:27:55.279Z,64.61
2017-12-06T03:28:26.911Z,64.55
2017-12-06T03:28:58.535Z,64.41
2017-12-06T03:29:30.158Z,64.42
2017-12-06T03:30:01.826Z,64.42
2017-12-06T03:30:33.456Z,64.43
2017-12-06T03:31:05.098Z,64.35
2017-12-06T03:31:36.794Z,64.31
2017-12-06T03:32:08.418Z,64.23
2017-12-06T03:32:40.042Z,64.37
2017-12-06T03:33:11.666Z,64.48
2017-12-06T03:33:43.286Z,64.36
2017-12-06T03:34:14.910Z,64.54
2017-12-06T03:34:46.530Z,64.45
2017-12-06T03:35:18.235Z,64.47
2017-12-06T03:35:49.866Z,64.49
2017-12-06T03:36:21.495Z,64.41
2017-12-06T03:36:53.182Z,64.39
2017-12-06T03:37:24.820Z,64.46
2017-12-06T03:37:56.450Z,64.39
2017-12-06T03:38:28.078Z,64.67
2017-12-06T03:38:59.726Z,64.49
2017-12-06T03:39:31.346Z,64.41
2017-12-06T03:40:02.975Z,64.37
2017-12-06T03:40:34.602Z,64.41
2017-12-06T03:41:06.222Z,64.41
2017-12-06T03:41:37.855Z,64.35
2017-12-06T03:42:09.536Z,64.35
2017-12-06T03:42:41.164Z,64.33
2017-12-06T03:43:12.794Z,64.25
2017-12-06T03:43:44.418Z,64.25
2017-12-06T03:44:16.042Z,64.20
2017-12-06T03:44:47.672Z,64.23
2017-12-06T03:45:19.298Z,64.17
2017-12-06T03:45:50.937Z,64.13
2017-12-06T03:46:22.566Z,64.29
2017-12-06T03:46:54.190Z,64.09
2017-12-06T03:47:25.876Z,63.95
2017-12-06T03:47:57.500Z,63.66
2017-12-06T03:48:29.135Z,63.78
2017-12-06T03:49:00.759Z,63.86
2017-12-06T03:49:32.390Z,64.01
2017-12-06T03:50:04.023Z,63.94
2017-12-06T03:50:35.651Z,63.84
2017-12-06T03:51:07.279Z,63.89
2017-12-06T03:51:38.911Z,63.73
2017-12-06T03:52:10.542Z,63.65
2017-12-06T03:52:42.230Z,63.64
2017-12-06T03:53:13.858Z,63.67
2017-12-06T03:53:45.487Z,63.58
2017-12-06T03:54:17.114Z,63.45
2017-12-06T03:54:48.806Z,63.12
2017-12-06T03:55:20.406Z,62.83
2017-12-06T03:55:52.026Z,62.07
2017-12-06T03:56:23.658Z,60.79
2017-12-06T03:56:55.282Z,59.66
2017-12-06T03:57:26.911Z,58.73
2017-12-06T03:57:58.558Z,58.45
2017-12-06T03:58:30.203Z,58.70
2017-12-06T03:59:01.854Z,58.54
2017-12-06T03:59:33.537Z,58.62
2017-12-06T04:00:05.162Z,58.62
2017-12-06T04:00:36.791Z,58.72
2017-12-06T04:01:08.417Z,59.41
2017-12-06T04:01:40.046Z,59.41
2017-12-06T04:02:11.710Z,59.40
2017-12-06T04:02:43.334Z,59.54
2017-12-06T04:03:14.958Z,59.68
2017-12-06T04:03:46.586Z,59.73
2017-12-06T04:04:18.207Z,59.82
2017-12-06T04:04:49.834Z,59.98
2017-12-06T04:05:21.667Z,60.31
2017-12-06T04:05:53.294Z,60.30
2017-12-06T04:06:24.930Z,60.26
2017-12-06T04:06:56.554Z,60.22
2017-12-06T04:07:28.247Z,60.22
2017-12-06T04:07:59.877Z,60.23
2017-12-06T04:08:31.506Z,60.24
2017-12-06T04:09:03.138Z,60.29
2017-12-06T04:09:34.804Z,60.31
2017-12-06T04:10:06.481Z,60.33
2017-12-06T04:10:38.103Z,60.34
2017-12-06T04:11:09.774Z,60.38
2017-12-06T04:11:41.398Z,60.41
2017-12-06T04:12:13.019Z,60.40
2017-12-06T04:12:44.642Z,60.41
2017-12-06T04:13:16.266Z,60.46
2017-12-06T04:13:47.890Z,60.42
2017-12-06T04:14:19.550Z,60.46
2017-12-06T04:14:51.183Z,60.47
2017-12-06T04:15:22.855Z,60.49
2017-12-06T04:15:54.484Z,60.52
2017-12-06T04:16:26.144Z,60.55
2017-12-06T04:16:57.770Z,60.55
2017-12-06T04:17:29.396Z,60.60
2017-12-06T04:18:01.377Z,60.64
2017-12-06T04:18:33.006Z,60.60
2017-12-06T04:19:04.670Z,60.70
2017-12-06T04:19:36.298Z,60.68
2017-12-06T04:20:07.927Z,60.67
2017-12-06T04:20:39.551Z,60.68
2017-12-06T04:21:11.182Z,60.63
2017-12-06T04:21:42.818Z,60.74
2017-12-06T04:22:14.442Z,60.73
2017-12-06T04:22:46.071Z,60.75
2017-12-06T04:23:17.702Z,60.76
2017-12-06T04:23:49.331Z,60.81
2017-12-06T04:24:20.956Z,60.73
2017-12-06T04:24:52.583Z,60.76
2017-12-06T04:25:24.210Z,60.78
2017-12-06T04:25:55.834Z,60.79
2017-12-06T04:26:27.457Z,60.76
2017-12-06T04:26:59.089Z,60.79
2017-12-06T04:27:30.718Z,60.81
2017-12-06T04:28:03.218Z,60.80
2017-12-06T04:28:34.846Z,60.76
2017-12-06T04:29:06.475Z,60.80
2017-12-06T04:29:38.098Z,60.81
2017-12-06T04:30:09.731Z,60.81
2017-12-06T04:30:41.355Z,60.82
2017-12-06T04:31:12.981Z,60.80
2017-12-06T04:31:44.614Z,60.86
2017-12-06T04:32:16.282Z,60.84
2017-12-06T04:32:47.906Z,60.85
2017-12-06T04:33:19.526Z,60.89
2017-12-06T04:33:51.159Z,60.90
2017-12-06T04:34:22.782Z,60.87
2017-12-06T04:34:54.407Z,60.85
2017-12-06T04:35:26.034Z,60.86
2017-12-06T04:35:57.659Z,60.86
2017-12-06T04:36:29.280Z,60.93
2017-12-06T04:37:00.906Z,60.97
2017-12-06T04:37:32.530Z,60.94
2017-12-06T04:38:04.154Z,60.96
2017-12-06T04:38:35.787Z,60.99
2017-12-06T04:39:07.423Z,60.88
2017-12-06T04:39:39.087Z,60.91
2017-12-06T04:40:10.714Z,60.92
2017-12-06T04:40:42.544Z,60.96
2017-12-06T04:41:14.170Z,60.97
2017-12-06T04:41:45.790Z,61.00
2017-12-06T04:42:17.410Z,61.00
2017-12-06T04:42:49.039Z,61.00
2017-12-06T04:43:20.662Z,61.02
2017-12-06T04:43:52.287Z,61.07
2017-12-06T04:44:23.915Z,61.00
2017-12-06T04:44:55.533Z,61.00
2017-12-06T04:45:27.158Z,60.98
2017-12-06T04:45:58.787Z,60.97
2017-12-06T04:46:30.419Z,60.98
2017-12-06T04:47:02.048Z,61.03
2017-12-06T04:47:33.702Z,61.00
2017-12-06T04:48:05.366Z,60.99
2017-12-06T04:48:36.998Z,61.00
2017-12-06T04:49:08.626Z,61.04
2017-12-06T04:49:40.254Z,61.01
2017-12-06T04:50:11.878Z,61.05
2017-12-06T04:50:43.502Z,61.04
2017-12-06T04:51:15.136Z,61.03
2017-12-06T04:51:46.810Z,61.07
2017-12-06T04:52:18.429Z,61.06
2017-12-06T04:52:50.059Z,61.06
2017-12-06T04:53:21.687Z,61.01
2017-12-06T04:53:53.310Z,61.02
2017-12-06T04:54:24.938Z,61.07
2017-12-06T04:54:56.566Z,61.05
2017-12-06T04:55:28.190Z,61.05
2017-12-06T04:55:59.813Z,61.10
2017-12-06T04:56:31.433Z,61.14
2017-12-06T04:57:03.094Z,61.13
2017-12-06T04:57:34.724Z,61.08
2017-12-06T04:58:06.345Z,61.07
2017-12-06T04:58:37.975Z,61.10
2017-12-06T04:59:09.606Z,61.06
2017-12-06T04:59:41.232Z,61.10
2017-12-06T05:00:12.859Z,61.16
2017-12-06T05:00:45.020Z,61.11
2017-12-06T05:01:16.650Z,61.12
2017-12-06T05:01:48.326Z,61.15
2017-12-06T05:02:19.962Z,61.15
2017-12-06T05:02:51.598Z,61.12
2017-12-06T05:03:23.222Z,61.08
2017-12-06T05:03:54.851Z,61.08
2017-12-06T05:04:26.478Z,61.07
2017-12-06T05:04:58.107Z,60.98
2017-12-06T05:05:29.731Z,61.00
2017-12-06T05:06:01.358Z,61.04
2017-12-06T05:06:32.990Z,61.01
2017-12-06T05:07:04.659Z,61.02
2017-12-06T05:07:36.281Z,61.02
2017-12-06T05:08:07.902Z,61.00
2017-12-06T05:08:39.534Z,60.99
2017-12-06T05:09:11.195Z,60.97
2017-12-06T05:09:42.827Z,60.95
2017-12-06T05:10:14.455Z,60.98
2017-12-06T05:10:49.511Z,60.96
2017-12-06T05:11:21.136Z,60.92
2017-12-06T05:11:52.765Z,60.97
2017-12-06T05:12:24.447Z,60.93
2017-12-06T05:12:56.075Z,60.96
2017-12-06T05:13:28.700Z,60.98
2017-12-06T05:14:00.326Z,60.99
2017-12-06T05:14:31.955Z,61.01
2017-12-06T05:15:03.592Z,60.99
2017-12-06T05:15:35.222Z,61.03
2017-12-06T05:16:06.851Z,61.04
2017-12-06T05:16:38.474Z,61.04
2017-12-06T05:17:10.102Z,61.01
2017-12-06T05:17:41.775Z,61.00
2017-12-06T05:18:13.398Z,61.00
2017-12-06T05:18:45.066Z,60.98
2017-12-06T05:19:16.694Z,60.96
2017-12-06T05:19:48.318Z,60.97
2017-12-06T05:20:19.938Z,61.00
2017-12-06T05:20:51.566Z,60.96
2017-12-06T05:21:23.478Z,60.97
2017-12-06T05:21:55.110Z,60.94
2017-12-06T05:22:26.739Z,60.95
2017-12-06T05:22:58.366Z,60.95
2017-12-06T05:23:29.995Z,60.99
2017-12-06T05:24:01.622Z,60.98
2017-12-06T05:24:33.250Z,61.02
2017-12-06T05:25:04.878Z,60.99
2017-12-06T05:25:36.510Z,60.95
2017-12-06T05:26:08.764Z,60.91
2017-12-06T05:26:40.646Z,60.95
2017-12-06T05:27:12.330Z,60.95
2017-12-06T05:27:43.950Z,60.91
2017-12-06T05:28:15.582Z,60.93
2017-12-06T05:28:47.657Z,60.91
2017-12-06T05:29:19.291Z,60.95
2017-12-06T05:29:50.917Z,60.90
2017-12-06T05:30:22.543Z,60.88
2017-12-06T05:30:54.179Z,60.84
2017-12-06T05:31:25.811Z,60.80
2017-12-06T05:31:57.442Z,60.77
2017-12-06T05:32:29.338Z,60.79
2017-12-06T05:33:00.962Z,60.72
2017-12-06T05:33:32.590Z,60.72
2017-12-06T05:34:04.575Z,60.63
2017-12-06T05:34:36.202Z,60.58
2017-12-06T05:35:07.828Z,60.62
2017-12-06T05:35:39.454Z,60.61
2017-12-06T05:36:11.082Z,60.60
2017-12-06T05:36:42.702Z,60.58
2017-12-06T05:37:14.362Z,60.58
2017-12-06T05:37:45.995Z,60.58
2017-12-06T05:38:17.622Z,60.57
2017-12-06T05:38:49.290Z,60.56
2017-12-06T05:39:20.914Z,60.55
2017-12-06T05:39:52.538Z,60.52
2017-12-06T05:40:24.166Z,60.55
2017-12-06T05:40:55.798Z,60.54
2017-12-06T05:41:28.483Z,60.55
2017-12-06T05:42:00.665Z,60.58
2017-12-06T05:42:32.290Z,60.50
2017-12-06T05:43:03.919Z,60.52
2017-12-06T05:43:35.590Z,60.50
2017-12-06T05:44:07.214Z,60.48
2017-12-06T05:44:40.145Z,60.51
2017-12-06T05:45:11.787Z,60.56
2017-12-06T05:45:43.414Z,60.60
2017-12-06T05:46:15.042Z,60.52
2017-12-06T05:46:46.666Z,60.52
2017-12-06T05:47:18.294Z,60.52
2017-12-06T05:47:49.925Z,60.52
2017-12-06T05:48:21.550Z,60.50
2017-12-06T05:48:53.214Z,60.44
2017-12-06T05:49:24.838Z,60.44
2017-12-06T05:49:56.466Z,60.37
2017-12-06T05:50:28.090Z,60.32
2017-12-06T05:50:59.762Z,60.41
2017-12-06T05:51:31.390Z,60.48
2017-12-06T05:52:03.018Z,60.43
2017-12-06T05:52:34.647Z,60.48
2017-12-06T05:53:06.274Z,60.56
2017-12-06T05:53:37.903Z,60.49
2017-12-06T05:54:09.533Z,60.43
2017-12-06T05:54:41.158Z,60.41
2017-12-06T05:55:12.789Z,60.42
2017-12-06T05:55:44.419Z,60.41
2017-12-06T05:56:16.099Z,60.33
2017-12-06T05:56:47.723Z,60.33
2017-12-06T05:57:19.346Z,60.38
2017-12-06T05:57:50.970Z,60.38
2017-12-06T05:58:22.606Z,60.40
2017-12-06T05:58:54.230Z,60.39
2017-12-06T05:59:25.855Z,60.39
2017-12-06T05:59:57.483Z,60.29
2017-12-06T06:00:29.114Z,60.25
2017-12-06T06:01:00.742Z,60.31
2017-12-06T06:01:32.402Z,60.30
2017-12-06T06:02:04.031Z,60.34
2017-12-06T06:02:35.663Z,60.33
2017-12-06T06:03:07.301Z,60.34
2017-12-06T06:03:38.951Z,60.33
2017-12-06T06:04:10.626Z,60.25
2017-12-06T06:04:42.256Z,60.28
2017-12-06T06:05:13.886Z,60.26
2017-12-06T06:05:45.519Z,60.27
2017-12-06T06:06:17.154Z,60.31
2017-12-06T06:06:49.135Z,60.31
2017-12-06T06:07:21.418Z,60.33
2017-12-06T06:07:53.043Z,60.31
2017-12-06T06:08:24.676Z,60.28
2017-12-06T06:08:56.301Z,60.27
2017-12-06T06:09:27.928Z,60.29
2017-12-06T06:09:59.568Z,60.37
2017-12-06T06:10:31.190Z,60.32
2017-12-06T06:11:02.814Z,60.31
2017-12-06T06:11:34.438Z,60.32
2017-12-06T06:12:06.067Z,60.29
2017-12-06T06:12:37.696Z,60.30
2017-12-06T06:13:09.371Z,60.31
2017-12-06T06:13:41.003Z,60.38
2017-12-06T06:14:12.626Z,60.36
2017-12-06T06:14:44.250Z,60.38
2017-12-06T06:15:15.878Z,60.39
2017-12-06T06:15:47.502Z,60.43
2017-12-06T06:16:19.126Z,60.39
2017-12-06T06:16:52.019Z,60.33
2017-12-06T06:17:23.651Z,60.31
2017-12-06T06:17:55.280Z,60.33
2017-12-06T06:18:26.946Z,60.31
2017-12-06T06:18:58.570Z,60.34
2017-12-06T06:19:30.204Z,60.32
2017-12-06T06:20:01.830Z,60.30
2017-12-06T06:20:33.459Z,60.31
2017-12-06T06:21:05.095Z,60.32
2017-12-06T06:21:36.732Z,60.32
2017-12-06T06:22:08.363Z,60.33
2017-12-06T06:22:40.038Z,60.32
2017-12-06T06:23:11.664Z,60.34
2017-12-06T06:23:43.294Z,60.35
2017-12-06T06:24:14.970Z,60.38
2017-12-06T06:24:46.599Z,60.36
2017-12-06T06:25:18.226Z,60.38
2017-12-06T06:25:49.855Z,60.42
2017-12-06T06:26:21.482Z,60.36
2017-12-06T06:26:53.114Z,60.34
2017-12-06T06:27:24.740Z,60.32
2017-12-06T06:27:56.366Z,60.31
2017-12-06T06:28:27.994Z,60.31
2017-12-06T06:28:59.622Z,60.33
2017-12-06T06:29:31.245Z,60.30
2017-12-06T06:30:02.866Z,60.32
2017-12-06T06:30:34.499Z,60.34
2017-12-06T06:31:06.158Z,60.35
2017-12-06T06:31:37.854Z,60.30
2017-12-06T06:32:09.483Z,60.30
2017-12-06T06:32:41.111Z,60.35
2017-12-06T06:33:12.734Z,60.38
2017-12-06T06:33:44.362Z,60.34
2017-12-06T06:34:16.041Z,60.31
2017-12-06T06:34:47.651Z,60.30
2017-12-06T06:35:19.278Z,60.30
2017-12-06T06:35:50.897Z,60.30
2017-12-06T06:36:22.523Z,60.34
2017-12-06T06:36:54.151Z,60.34
2017-12-06T06:37:25.778Z,60.34
2017-12-06T06:37:57.498Z,60.35
2017-12-06T06:38:29.132Z,60.38
2017-12-06T06:39:00.755Z,60.34
2017-12-06T06:39:32.383Z,60.39
2017-12-06T06:40:04.014Z,60.35
2017-12-06T06:40:35.643Z,60.33
2017-12-06T06:41:07.266Z,60.35
2017-12-06T06:41:38.886Z,60.32
2017-12-06T06:42:10.522Z,60.29
2017-12-06T06:42:42.158Z,60.29
2017-12-06T06:43:13.838Z,60.33
2017-12-06T06:43:45.466Z,60.29
2017-12-06T06:44:17.143Z,60.34
2017-12-06T06:44:48.769Z,60.34
2017-12-06T06:45:20.414Z,60.31
2017-12-06T06:45:52.043Z,60.30
2017-12-06T06:46:23.691Z,60.27
2017-12-06T06:46:55.318Z,60.28
2017-12-06T06:47:26.946Z,60.29
2017-12-06T06:47:58.578Z,60.27
2017-12-06T06:48:30.207Z,60.29
2017-12-06T06:49:01.829Z,60.28